Pagrindinis puslapis
METAR-TAF:

METAR-TAF

Oro uostai :

Sørkjosen, Norvegija

platuma: 69-47N, ilguma: 020-58E, Aukštis: 0 m

Dabartinis oras

Ataskaita buvo paskelbta 1 valandą ir 44 minutes, ne 13:20 UTC
Vėjas 8 kt iš Pietų/Pietryčių
Temperatūra 1°C
Drėgmė 59%
Slėgis 974 hPa
Matomumas 10 km arba daugiau
Mažai debesys ne aukštis 5000 ft

METAR: ENSR 211320Z 15008KT 9999 FEW050 01/M06 Q0974 RMK WIND 1119FT 14016KT

Laikas: 16:04 (15:04 UTC)


TAF: trūkstamas

Orai ataskaitas ir orų prognozės (METAR, TAF).

turimą stotys yra geltonos ir raudonos taškus žemėlapyje.

Perkelti pele per norėdami pamatyti stoties vardą.

Tada spustelėkite, norėdami matyti oro stebėjimo ir prognozės.

Norėdami pakeisti žemėlapį: spustelėkite ant žalios mygtukų su juodo kryžiaus žemyn,; žalią mygtuką su brūkšneliu, jei norite nutolinti; arba žalių rodyklių gretimoms žemėlapius.


METAR-TAF: